sensor_id;sensor_type;location;lat;lon;timestamp;pressure;altitude;pressure_sealevel;temperature;humidity
41712;BME280;27399;51.516;13.670;2023-02-22T00:01:09;100625.44;;;10.37;95.61
41712;BME280;27399;51.516;13.670;2023-02-22T00:03:48;100616.53;;;10.35;95.96
41712;BME280;27399;51.516;13.670;2023-02-22T00:06:17;100618.31;;;10.39;95.61
41712;BME280;27399;51.516;13.670;2023-02-22T00:08:42;100602.34;;;10.30;95.81
41712;BME280;27399;51.516;13.670;2023-02-22T00:11:08;100612.09;;;10.37;96.02
41712;BME280;27399;51.516;13.670;2023-02-22T00:13:35;100609.44;;;10.42;95.56
41712;BME280;27399;51.516;13.670;2023-02-22T00:16:01;100610.31;;;10.43;95.84
41712;BME280;27399;51.516;13.670;2023-02-22T00:18:28;100594.34;;;10.26;96.31
41712;BME280;27399;51.516;13.670;2023-02-22T00:20:56;100611.19;;;10.34;96.17
41712;BME280;27399;51.516;13.670;2023-02-22T00:23:26;100610.31;;;10.32;96.40
41712;BME280;27399;51.516;13.670;2023-02-22T00:25:53;100605.13;;;9.99;97.94
41712;BME280;27399;51.516;13.670;2023-02-22T00:28:20;100598.88;;;10.05;96.99
41712;BME280;27399;51.516;13.670;2023-02-22T00:30:48;100609.47;;;10.30;95.85
41712;BME280;27399;51.516;13.670;2023-02-22T00:33:15;100607.75;;;10.12;95.99
41712;BME280;27399;51.516;13.670;2023-02-22T00:35:41;100606.88;;;10.13;95.73
41712;BME280;27399;51.516;13.670;2023-02-22T00:38:11;100607.78;;;10.02;95.01
41712;BME280;27399;51.516;13.670;2023-02-22T00:40:36;100597.09;;;10.15;94.30
41712;BME280;27399;51.516;13.670;2023-02-22T00:43:03;100610.38;;;10.24;94.15
41712;BME280;27399;51.516;13.670;2023-02-22T00:45:31;100605.88;;;10.34;93.86
41712;BME280;27399;51.516;13.670;2023-02-22T00:47:57;100613.91;;;10.24;93.70
41712;BME280;27399;51.516;13.670;2023-02-22T00:50:24;100606.81;;;10.19;94.07
41712;BME280;27399;51.516;13.670;2023-02-22T00:52:51;100607.69;;;10.22;93.98
41712;BME280;27399;51.516;13.670;2023-02-22T00:55:26;100615.75;;;10.12;93.91
41712;BME280;27399;51.516;13.670;2023-02-22T00:57:52;100607.72;;;10.13;94.17
41712;BME280;27399;51.516;13.670;2023-02-22T01:00:30;100608.59;;;10.20;94.07
41712;BME280;27399;51.516;13.670;2023-02-22T01:02:56;100612.19;;;10.10;94.45
41712;BME280;27399;51.516;13.670;2023-02-22T01:05:25;100608.59;;;10.17;94.18
41712;BME280;27399;51.516;13.670;2023-02-22T01:07:51;100614.91;;;10.03;93.97
41712;BME280;27399;51.516;13.670;2023-02-22T01:10:20;100606.84;;;10.16;94.10
41712;BME280;27399;51.516;13.670;2023-02-22T01:12:46;100613.97;;;10.11;93.80
41712;BME280;27399;51.516;13.670;2023-02-22T01:15:12;100609.53;;;10.05;94.20
41712;BME280;27399;51.516;13.670;2023-02-22T01:17:39;100610.44;;;9.99;94.62
41712;BME280;27399;51.516;13.670;2023-02-22T01:20:09;100608.66;;;10.03;94.59
41712;BME280;27399;51.516;13.670;2023-02-22T01:22:40;100607.75;;;10.08;94.35
41712;BME280;27399;51.516;13.670;2023-02-22T01:25:10;100606.00;;;10.04;94.45
41712;BME280;27399;51.516;13.670;2023-02-22T01:27:37;100608.63;;;10.07;94.15
41712;BME280;27399;51.516;13.670;2023-02-22T01:30:04;100606.00;;;9.98;95.06
41712;BME280;27399;51.516;13.670;2023-02-22T01:32:37;100606.00;;;10.09;93.92
41712;BME280;27399;51.516;13.670;2023-02-22T01:35:05;100590.91;;;10.00;93.97
41712;BME280;27399;51.516;13.670;2023-02-22T01:37:34;100601.59;;;9.92;94.44
41712;BME280;27399;51.516;13.670;2023-02-22T01:40:00;100610.47;;;9.93;94.49
41712;BME280;27399;51.516;13.670;2023-02-22T01:42:26;100602.44;;;10.05;93.98
41712;BME280;27399;51.516;13.670;2023-02-22T01:48:03;100602.44;;;10.05;93.79
41712;BME280;27399;51.516;13.670;2023-02-22T01:50:34;100601.56;;;9.97;94.04
41712;BME280;27399;51.516;13.670;2023-02-22T01:53:03;100594.50;;;9.88;94.29
41712;BME280;27399;51.516;13.670;2023-02-22T01:55:30;100598.91;;;9.89;94.50
41712;BME280;27399;51.516;13.670;2023-02-22T01:57:57;100595.38;;;9.93;94.17
41712;BME280;27399;51.516;13.670;2023-02-22T02:00:23;100593.56;;;10.00;93.85
41712;BME280;27399;51.516;13.670;2023-02-22T02:02:57;100583.81;;;9.96;93.52
41712;BME280;27399;51.516;13.670;2023-02-22T02:05:28;100591.75;;;10.08;93.28
41712;BME280;27399;51.516;13.670;2023-02-22T02:07:57;100589.13;;;10.02;93.28
41712;BME280;27399;51.516;13.670;2023-02-22T02:10:23;100594.47;;;9.99;93.11
41712;BME280;27399;51.516;13.670;2023-02-22T02:12:50;100592.78;;;9.66;94.42
41712;BME280;27399;51.516;13.670;2023-02-22T02:15:29;100590.06;;;9.92;93.55
41712;BME280;27399;51.516;13.670;2023-02-22T02:17:58;100591.00;;;9.77;93.93
41712;BME280;27399;51.516;13.670;2023-02-22T02:20:59;100593.66;;;9.74;93.88
41712;BME280;27399;51.516;13.670;2023-02-22T02:43:22;100578.56;;;9.68;94.59
41712;BME280;27399;51.516;13.670;2023-02-22T02:48:42;100578.56;;;9.65;94.84
41712;BME280;27399;51.516;13.670;2023-02-22T02:51:10;100576.78;;;9.67;94.26
41712;BME280;27399;51.516;13.670;2023-02-22T02:53:41;100570.59;;;9.53;94.49
41712;BME280;27399;51.516;13.670;2023-02-22T02:56:08;100577.72;;;9.60;94.74
41712;BME280;27399;51.516;13.670;2023-02-22T02:58:49;100574.13;;;9.75;94.47
41712;BME280;27399;51.516;13.670;2023-02-22T03:07:35;100577.72;;;9.60;94.63
41712;BME280;27399;51.516;13.670;2023-02-22T03:12:35;100575.06;;;9.55;94.54
41712;BME280;27399;51.516;13.670;2023-02-22T03:15:26;100568.84;;;9.47;95.00
41712;BME280;27399;51.516;13.670;2023-02-22T03:18:04;100568.84;;;9.41;95.20
41712;BME280;27399;51.516;13.670;2023-02-22T03:25:57;100571.50;;;9.45;94.46
41712;BME280;27399;51.516;13.670;2023-02-22T03:28:25;100560.91;;;9.30;94.61
41712;BME280;27399;51.516;13.670;2023-02-22T03:31:03;100576.84;;;9.52;94.24
41712;BME280;27399;51.516;13.670;2023-02-22T03:33:51;100568.88;;;9.35;94.56
41712;BME280;27399;51.516;13.670;2023-02-22T03:36:30;100572.41;;;9.46;94.00
41712;BME280;27399;51.516;13.670;2023-02-22T03:38:58;100572.41;;;9.51;94.35
41712;BME280;27399;51.516;13.670;2023-02-22T03:41:26;100571.50;;;9.47;94.56
41712;BME280;27399;51.516;13.670;2023-02-22T03:44:05;100571.50;;;9.49;94.22
41712;BME280;27399;51.516;13.670;2023-02-22T03:46:33;100568.84;;;9.47;94.30
41712;BME280;27399;51.516;13.670;2023-02-22T03:49:45;100561.75;;;9.37;94.71
41712;BME280;27399;51.516;13.670;2023-02-22T03:52:01;100567.97;;;9.37;94.17
41712;BME280;27399;51.516;13.670;2023-02-22T03:54:28;100569.75;;;9.32;94.68
41712;BME280;27399;51.516;13.670;2023-02-22T03:56:57;100568.84;;;9.42;94.76
41712;BME280;27399;51.516;13.670;2023-02-22T03:59:24;100564.41;;;9.44;94.17
41712;BME280;27399;51.516;13.670;2023-02-22T04:01:55;100566.16;;;9.47;94.32
41712;BME280;27399;51.516;13.670;2023-02-22T04:04:21;100563.53;;;9.41;93.80
41712;BME280;27399;51.516;13.670;2023-02-22T04:06:48;100571.53;;;9.36;94.34
41712;BME280;27399;51.516;13.670;2023-02-22T04:09:15;100567.97;;;9.42;94.23
41712;BME280;27399;51.516;13.670;2023-02-22T04:11:41;100563.50;;;9.42;94.53
41712;BME280;27399;51.516;13.670;2023-02-22T04:14:06;100554.66;;;9.46;94.04
41712;BME280;27399;51.516;13.670;2023-02-22T04:16:32;100564.41;;;9.51;93.61
41712;BME280;27399;51.516;13.670;2023-02-22T04:18:59;100567.09;;;9.38;94.08
41712;BME280;27399;51.516;13.670;2023-02-22T04:21:25;100560.91;;;9.18;94.63
41712;BME280;27399;51.516;13.670;2023-02-22T04:23:50;100559.09;;;9.41;93.92
41712;BME280;27399;51.516;13.670;2023-02-22T04:26:16;100558.19;;;9.47;93.69
41712;BME280;27399;51.516;13.670;2023-02-22T04:28:41;100562.66;;;9.34;93.39
41712;BME280;27399;51.516;13.670;2023-02-22T04:31:07;100565.31;;;9.33;93.80
41712;BME280;27399;51.516;13.670;2023-02-22T04:33:33;100560.88;;;9.38;93.68
41712;BME280;27399;51.516;13.670;2023-02-22T04:35:58;100549.34;;;9.33;93.38
41712;BME280;27399;51.516;13.670;2023-02-22T04:38:25;100562.66;;;9.29;93.77
41712;BME280;27399;51.516;13.670;2023-02-22T04:40:51;100565.31;;;9.29;94.01
41712;BME280;27399;51.516;13.670;2023-02-22T04:43:17;100555.53;;;9.47;93.57
41712;BME280;27399;51.516;13.670;2023-02-22T04:45:43;100552.00;;;9.46;93.56
41712;BME280;27399;51.516;13.670;2023-02-22T04:48:09;100555.56;;;9.30;93.85
41712;BME280;27399;51.516;13.670;2023-02-22T04:50:34;100559.09;;;9.41;93.66
41712;BME280;27399;51.516;13.670;2023-02-22T04:53:00;100547.59;;;9.30;93.80
41712;BME280;27399;51.516;13.670;2023-02-22T04:55:26;100551.97;;;9.43;93.75
41712;BME280;27399;51.516;13.670;2023-02-22T04:57:53;100543.13;;;9.38;92.99
41712;BME280;27399;51.516;13.670;2023-02-22T05:00:19;100539.59;;;9.27;93.33
41712;BME280;27399;51.516;13.670;2023-02-22T05:02:47;100541.34;;;9.50;93.02
41712;BME280;27399;51.516;13.670;2023-02-22T05:05:14;100537.81;;;9.38;92.83
41712;BME280;27399;51.516;13.670;2023-02-22T05:07:41;100541.34;;;9.34;92.89
41712;BME280;27399;51.516;13.670;2023-02-22T05:10:07;100541.38;;;9.28;92.92
41712;BME280;27399;51.516;13.670;2023-02-22T05:12:34;100538.69;;;9.22;93.23
41712;BME280;27399;51.516;13.670;2023-02-22T05:15:00;100539.59;;;9.30;93.09
41712;BME280;27399;51.516;13.670;2023-02-22T05:17:25;100531.63;;;9.19;93.96
41712;BME280;27399;51.516;13.670;2023-02-22T05:19:51;100538.72;;;9.25;93.98
41712;BME280;27399;51.516;13.670;2023-02-22T05:22:17;100517.44;;;9.14;93.45
41712;BME280;27399;51.516;13.670;2023-02-22T05:24:43;100538.72;;;9.25;93.22
41712;BME280;27399;51.516;13.670;2023-02-22T05:27:08;100544.94;;;9.14;93.15
41712;BME280;27399;51.516;13.670;2023-02-22T05:29:34;100546.72;;;9.19;93.72
41712;BME280;27399;51.516;13.670;2023-02-22T05:32:03;100535.19;;;9.04;93.99
41712;BME280;27399;51.516;13.670;2023-02-22T05:34:31;100529.84;;;9.24;93.75
41712;BME280;27399;51.516;13.670;2023-02-22T05:36:56;100533.41;;;9.15;94.06
41712;BME280;27399;51.516;13.670;2023-02-22T05:39:22;100535.19;;;9.17;93.82
41712;BME280;27399;51.516;13.670;2023-02-22T05:41:48;100537.81;;;9.10;94.17
41712;BME280;27399;51.516;13.670;2023-02-22T05:44:13;100530.72;;;9.17;93.79
41712;BME280;27399;51.516;13.670;2023-02-22T05:46:39;100534.28;;;9.02;94.72
41712;BME280;27399;51.516;13.670;2023-02-22T05:49:04;100537.84;;;8.98;94.33
41712;BME280;27399;51.516;13.670;2023-02-22T05:51:30;100541.38;;;9.19;93.84
41712;BME280;27399;51.516;13.670;2023-02-22T05:53:56;100549.38;;;8.98;94.12
41712;BME280;27399;51.516;13.670;2023-02-22T05:56:23;100544.94;;;9.05;93.46
41712;BME280;27399;51.516;13.670;2023-02-22T05:58:50;100547.59;;;9.08;93.87
41712;BME280;27399;51.516;13.670;2023-02-22T06:01:16;100550.25;;;9.14;93.86
41712;BME280;27399;51.516;13.670;2023-02-22T06:03:45;100554.69;;;9.08;93.36
41712;BME280;27399;51.516;13.670;2023-02-22T06:06:11;100555.56;;;9.14;93.40
41712;BME280;27399;51.516;13.670;2023-02-22T06:08:37;100557.34;;;9.19;93.34
41712;BME280;27399;51.516;13.670;2023-02-22T06:11:02;100560.00;;;9.22;93.13
41712;BME280;27399;51.516;13.670;2023-02-22T06:13:28;100563.56;;;9.18;92.80
41712;BME280;27399;51.516;13.670;2023-02-22T06:15:53;100559.09;;;9.23;92.63
41712;BME280;27399;51.516;13.670;2023-02-22T06:18:19;100561.78;;;9.13;93.03
41712;BME280;27399;51.516;13.670;2023-02-22T06:20:45;100565.34;;;9.14;92.61
41712;BME280;27399;51.516;13.670;2023-02-22T06:23:10;100562.66;;;9.15;92.37
41712;BME280;27399;51.516;13.670;2023-02-22T06:25:36;100572.44;;;8.98;92.70
41712;BME280;27399;51.516;13.670;2023-02-22T06:28:02;100552.91;;;9.07;92.17
41712;BME280;27399;51.516;13.670;2023-02-22T06:30:28;100566.22;;;9.08;92.26
41712;BME280;27399;51.516;13.670;2023-02-22T06:32:53;100564.44;;;8.92;93.14
41712;BME280;27399;51.516;13.670;2023-02-22T06:35:20;100571.53;;;9.05;92.43
41712;BME280;27399;51.516;13.670;2023-02-22T06:37:45;100571.53;;;9.10;92.81
41712;BME280;27399;51.516;13.670;2023-02-22T06:40:12;100570.66;;;9.08;92.77
41712;BME280;27399;51.516;13.670;2023-02-22T06:42:38;100564.44;;;9.04;93.18
41712;BME280;27399;51.516;13.670;2023-02-22T06:45:04;100571.53;;;9.02;93.32
41712;BME280;27399;51.516;13.670;2023-02-22T06:47:30;100576.88;;;9.08;92.98
41712;BME280;27399;51.516;13.670;2023-02-22T06:49:57;100572.44;;;9.20;92.77
41712;BME280;27399;51.516;13.670;2023-02-22T06:52:23;100574.19;;;9.10;93.43
41712;BME280;27399;51.516;13.670;2023-02-22T06:54:49;100580.38;;;9.10;93.41
41712;BME280;27399;51.516;13.670;2023-02-22T06:57:15;100577.72;;;9.06;93.87
41712;BME280;27399;51.516;13.670;2023-02-22T06:59:40;100582.19;;;9.18;93.45
41712;BME280;27399;51.516;13.670;2023-02-22T07:02:06;100583.06;;;9.01;93.70
41712;BME280;27399;51.516;13.670;2023-02-22T07:04:32;100588.41;;;9.20;93.47
41712;BME280;27399;51.516;13.670;2023-02-22T07:06:57;100582.16;;;9.11;92.85
41712;BME280;27399;51.516;13.670;2023-02-22T07:09:23;100591.03;;;9.10;93.05
41712;BME280;27399;51.516;13.670;2023-02-22T07:11:48;100590.13;;;8.90;94.52
41712;BME280;27399;51.516;13.670;2023-02-22T07:14:17;100591.94;;;8.89;94.72
41712;BME280;27399;51.516;13.670;2023-02-22T07:16:43;100593.72;;;8.98;94.72
41712;BME280;27399;51.516;13.670;2023-02-22T07:19:08;100591.06;;;9.03;93.93
41712;BME280;27399;51.516;13.670;2023-02-22T07:21:34;100594.59;;;8.88;94.78
41712;BME280;27399;51.516;13.670;2023-02-22T07:24:00;100600.78;;;8.97;94.61
41712;BME280;27399;51.516;13.670;2023-02-22T07:26:26;100591.94;;;8.97;94.93
41712;BME280;27399;51.516;13.670;2023-02-22T07:28:51;100601.69;;;9.10;94.27
41712;BME280;27399;51.516;13.670;2023-02-22T07:31:17;100596.38;;;8.98;94.11
41712;BME280;27399;51.516;13.670;2023-02-22T07:33:45;100603.47;;;8.96;94.51
41712;BME280;27399;51.516;13.670;2023-02-22T07:36:11;100607.00;;;9.13;94.04
41712;BME280;27399;51.516;13.670;2023-02-22T07:38:39;100602.56;;;9.12;93.62
41712;BME280;27399;51.516;13.670;2023-02-22T07:41:05;100606.13;;;9.21;93.58
41712;BME280;27399;51.516;13.670;2023-02-22T07:43:31;100591.06;;;8.98;93.00
41712;BME280;27399;51.516;13.670;2023-02-22T07:45:58;100601.69;;;9.18;92.67
41712;BME280;27399;51.516;13.670;2023-02-22T07:48:28;100594.59;;;9.03;93.48
41712;BME280;27399;51.516;13.670;2023-02-22T07:50:54;100599.91;;;8.94;93.70
41712;BME280;27399;51.516;13.670;2023-02-22T07:53:22;100602.56;;;9.12;92.87
41712;BME280;27399;51.516;13.670;2023-02-22T07:55:48;100607.00;;;9.23;92.73
41712;BME280;27399;51.516;13.670;2023-02-22T07:58:19;100598.13;;;9.21;93.24
41712;BME280;27399;51.516;13.670;2023-02-22T08:00:45;100595.47;;;9.16;93.96
41712;BME280;27399;51.516;13.670;2023-02-22T08:03:14;100596.38;;;9.23;93.06
41712;BME280;27399;51.516;13.670;2023-02-22T08:05:43;100598.13;;;9.28;93.57
41712;BME280;27399;51.516;13.670;2023-02-22T08:08:10;100591.94;;;9.14;93.73
41712;BME280;27399;51.516;13.670;2023-02-22T08:10:36;100594.63;;;9.31;93.48
41712;BME280;27399;51.516;13.670;2023-02-22T08:13:03;100601.69;;;9.37;92.83
41712;BME280;27399;51.516;13.670;2023-02-22T08:15:32;100590.19;;;9.25;92.30
41712;BME280;27399;51.516;13.670;2023-02-22T08:18:00;100601.69;;;9.32;91.92
41712;BME280;27399;51.516;13.670;2023-02-22T08:20:27;100598.16;;;9.36;92.42
41712;BME280;27399;51.516;13.670;2023-02-22T08:22:54;100600.78;;;9.16;92.49
41712;BME280;27399;51.516;13.670;2023-02-22T08:25:21;100599.03;;;9.03;94.17
41712;BME280;27399;51.516;13.670;2023-02-22T08:27:48;100599.03;;;9.27;93.51
41712;BME280;27399;51.516;13.670;2023-02-22T08:30:17;100588.38;;;9.34;92.94
41712;BME280;27399;51.516;13.670;2023-02-22T08:32:45;100589.28;;;9.37;93.99
41712;BME280;27399;51.516;13.670;2023-02-22T08:35:12;100591.03;;;9.32;94.39
41712;BME280;27399;51.516;13.670;2023-02-22T08:37:47;100588.38;;;9.46;93.31
41712;BME280;27399;51.516;13.670;2023-02-22T08:40:14;100591.00;;;9.54;92.84
41712;BME280;27399;51.516;13.670;2023-02-22T08:42:42;100583.94;;;9.29;93.87
41712;BME280;27399;51.516;13.670;2023-02-22T08:45:08;100567.97;;;9.34;93.87
41712;BME280;27399;51.516;13.670;2023-02-22T08:47:35;100591.03;;;9.48;92.71
41712;BME280;27399;51.516;13.670;2023-02-22T08:50:00;100583.91;;;9.56;92.59
41712;BME280;27399;51.516;13.670;2023-02-22T08:52:26;100581.28;;;9.40;92.79
41712;BME280;27399;51.516;13.670;2023-02-22T08:54:52;100589.25;;;9.56;93.85
41712;BME280;27399;51.516;13.670;2023-02-22T08:57:17;100583.06;;;9.48;93.52
41712;BME280;27399;51.516;13.670;2023-02-22T08:59:43;100576.78;;;9.64;92.99
41712;BME280;27399;51.516;13.670;2023-02-22T09:02:16;100580.38;;;9.44;93.01
41712;BME280;27399;51.516;13.670;2023-02-22T09:04:42;100584.81;;;9.55;93.54
41712;BME280;27399;51.516;13.670;2023-02-22T09:07:09;100570.63;;;9.46;94.55
41712;BME280;27399;51.516;13.670;2023-02-22T09:09:35;100577.69;;;9.58;92.84
41712;BME280;27399;51.516;13.670;2023-02-22T09:12:01;100580.34;;;9.66;92.95
41712;BME280;27399;51.516;13.670;2023-02-22T09:14:27;100582.09;;;9.76;92.77
41712;BME280;27399;51.516;13.670;2023-02-22T09:16:52;100556.44;;;9.18;92.50
41712;BME280;27399;51.516;13.670;2023-02-22T09:19:18;100576.81;;;9.61;93.01
41712;BME280;27399;51.516;13.670;2023-02-22T09:21:44;100585.72;;;9.48;92.15
41712;BME280;27399;51.516;13.670;2023-02-22T09:24:09;100571.44;;;9.76;91.00
41712;BME280;27399;51.516;13.670;2023-02-22T09:26:36;100581.19;;;9.85;91.16
41712;BME280;27399;51.516;13.670;2023-02-22T09:29:07;100575.88;;;9.79;92.19
41712;BME280;27399;51.516;13.670;2023-02-22T09:31:37;100574.97;;;9.91;91.50
41712;BME280;27399;51.516;13.670;2023-02-22T09:34:04;100567.88;;;9.82;92.88
41712;BME280;27399;51.516;13.670;2023-02-22T09:36:39;100574.06;;;9.90;92.91
41712;BME280;27399;51.516;13.670;2023-02-22T09:39:05;100572.31;;;9.83;93.40
41712;BME280;27399;51.516;13.670;2023-02-22T09:41:42;100570.47;;;9.96;94.15
41712;BME280;27399;51.516;13.670;2023-02-22T09:47:01;100572.22;;;10.16;91.28
41712;BME280;27399;51.516;13.670;2023-02-22T09:49:33;100571.38;;;9.98;91.58
41712;BME280;27399;51.516;13.670;2023-02-22T09:54:39;100567.72;;;10.24;91.42
41712;BME280;27399;51.516;13.670;2023-02-22T09:57:11;100566.81;;;10.30;91.13
41712;BME280;27399;51.516;13.670;2023-02-22T09:59:51;100559.72;;;10.22;92.10
41712;BME280;27399;51.516;13.670;2023-02-22T10:02:31;100567.69;;;10.27;91.90
41712;BME280;27399;51.516;13.670;2023-02-22T10:05:07;100560.56;;;10.38;91.00
41712;BME280;27399;51.516;13.670;2023-02-22T10:07:39;100565.00;;;10.38;90.13
41712;BME280;27399;51.516;13.670;2023-02-22T10:10:17;100557.13;;;10.12;90.23
41712;BME280;27399;51.516;13.670;2023-02-22T10:23:35;100545.53;;;10.20;90.73
41712;BME280;27399;51.516;13.670;2023-02-22T10:26:23;100544.53;;;10.42;90.70
41712;BME280;27399;51.516;13.670;2023-02-22T10:29:12;100535.56;;;10.57;90.48
41712;BME280;27399;51.516;13.670;2023-02-22T10:31:43;100543.69;;;10.36;91.29
41712;BME280;27399;51.516;13.670;2023-02-22T10:34:16;100544.63;;;10.21;90.49
41712;BME280;27399;51.516;13.670;2023-02-22T10:36:47;100536.47;;;10.56;90.46
41712;BME280;27399;51.516;13.670;2023-02-22T10:39:24;100534.69;;;10.53;91.63
41712;BME280;27399;51.516;13.670;2023-02-22T10:41:55;100523.16;;;10.54;90.98
41712;BME280;27399;51.516;13.670;2023-02-22T10:44:21;100525.72;;;10.65;91.58
41712;BME280;27399;51.516;13.670;2023-02-22T10:46:47;100524.84;;;10.66;91.41
41712;BME280;27399;51.516;13.670;2023-02-22T10:49:19;100531.94;;;10.68;90.84
41712;BME280;27399;51.516;13.670;2023-02-22T10:51:58;100533.59;;;10.85;89.57
41712;BME280;27399;51.516;13.670;2023-02-22T10:54:32;100526.50;;;10.79;89.37
41712;BME280;27399;51.516;13.670;2023-02-22T10:57:00;100525.59;;;10.83;89.67
41712;BME280;27399;51.516;13.670;2023-02-22T10:59:36;100528.16;;;10.94;89.51
41712;BME280;27399;51.516;13.670;2023-02-22T11:02:22;100524.50;;;11.11;89.61
41712;BME280;27399;51.516;13.670;2023-02-22T11:04:50;100526.28;;;11.09;90.43
41712;BME280;27399;51.516;13.670;2023-02-22T11:07:23;100523.63;;;11.06;89.38
41712;BME280;27399;51.516;13.670;2023-02-22T11:14:52;100513.06;;;10.95;89.84
41712;BME280;27399;51.516;13.670;2023-02-22T11:17:30;100513.06;;;10.95;89.61
41712;BME280;27399;51.516;13.670;2023-02-22T11:19:57;100512.94;;;11.09;89.54
41712;BME280;27399;51.516;13.670;2023-02-22T11:22:38;100514.75;;;11.00;88.98
41712;BME280;27399;51.516;13.670;2023-02-22T11:25:06;100509.28;;;11.18;89.12
41712;BME280;27399;51.516;13.670;2023-02-22T11:27:41;100510.19;;;11.18;89.47
41712;BME280;27399;51.516;13.670;2023-02-22T11:32:57;100511.84;;;11.28;89.47
41712;BME280;27399;51.516;13.670;2023-02-22T11:41:09;100506.41;;;11.38;88.51
41712;BME280;27399;51.516;13.670;2023-02-22T11:43:35;100505.53;;;11.37;87.86
41712;BME280;27399;51.516;13.670;2023-02-22T11:48:30;100495.66;;;11.45;88.50
41712;BME280;27399;51.516;13.670;2023-02-22T11:51:15;100499.22;;;11.47;87.36
41712;BME280;27399;51.516;13.670;2023-02-22T11:54:29;100497.31;;;11.54;87.44
41712;BME280;27399;51.516;13.670;2023-02-22T11:56:39;100491.97;;;11.54;87.69
41712;BME280;27399;51.516;13.670;2023-02-22T12:05:06;100493.88;;;11.43;87.75
41712;BME280;27399;51.516;13.670;2023-02-22T12:16:23;100485.72;;;11.58;88.35
41712;BME280;27399;51.516;13.670;2023-02-22T12:19:18;100477.69;;;11.58;87.73
41712;BME280;27399;51.516;13.670;2023-02-22T12:21:52;100471.53;;;11.55;88.94
41712;BME280;27399;51.516;13.670;2023-02-22T12:24:26;100463.44;;;11.59;88.88
41712;BME280;27399;51.516;13.670;2023-02-22T12:27:00;100469.81;;;11.49;89.36
41712;BME280;27399;51.516;13.670;2023-02-22T12:32:13;100462.16;;;11.15;88.93
41712;BME280;27399;51.516;13.670;2023-02-22T12:34:53;100460.78;;;11.59;87.29
41712;BME280;27399;51.516;13.670;2023-02-22T12:37:25;100459.09;;;11.52;88.33
41712;BME280;27399;51.516;13.670;2023-02-22T12:40:06;100464.16;;;11.72;88.18
41712;BME280;27399;51.516;13.670;2023-02-22T12:45:59;100460.41;;;11.87;88.32
41712;BME280;27399;51.516;13.670;2023-02-22T12:50:43;100453.94;;;12.08;87.74
41712;BME280;27399;51.516;13.670;2023-02-22T12:53:20;100446.72;;;12.15;87.59
41712;BME280;27399;51.516;13.670;2023-02-22T12:55:51;100460.84;;;12.23;87.71
41712;BME280;27399;51.516;13.670;2023-02-22T13:01:17;100452.69;;;12.33;87.58
41712;BME280;27399;51.516;13.670;2023-02-22T13:03:45;100456.25;;;12.32;85.93
41712;BME280;27399;51.516;13.670;2023-02-22T13:12:24;100438.66;;;12.73;85.26
41712;BME280;27399;51.516;13.670;2023-02-22T13:17:50;100441.34;;;12.75;85.05
41712;BME280;27399;51.516;13.670;2023-02-22T13:20:37;100441.25;;;12.78;84.33
41712;BME280;27399;51.516;13.670;2023-02-22T13:23:09;100437.66;;;12.79;84.00
41712;BME280;27399;51.516;13.670;2023-02-22T13:28:50;100436.84;;;12.75;83.94
41712;BME280;27399;51.516;13.670;2023-02-22T13:36:36;100440.34;;;12.80;84.52
41712;BME280;27399;51.516;13.670;2023-02-22T13:50:19;100433.22;;;12.23;83.47
41712;BME280;27399;51.516;13.670;2023-02-22T13:52:50;100433.69;;;12.50;85.02
41712;BME280;27399;51.516;13.670;2023-02-22T13:55:23;100428.38;;;12.48;84.21
41712;BME280;27399;51.516;13.670;2023-02-22T13:58:02;100431.19;;;12.39;83.75
41712;BME280;27399;51.516;13.670;2023-02-22T14:00:48;100433.91;;;12.37;84.49
41712;BME280;27399;51.516;13.670;2023-02-22T14:16:26;100420.81;;;12.17;84.92
41712;BME280;27399;51.516;13.670;2023-02-22T14:19:19;100413.75;;;12.15;86.06
41712;BME280;27399;51.516;13.670;2023-02-22T14:21:58;100412.75;;;12.20;84.64
41712;BME280;27399;51.516;13.670;2023-02-22T14:24:28;100414.63;;;12.15;84.73
41712;BME280;27399;51.516;13.670;2023-02-22T14:27:01;100396.13;;;12.00;85.32
41712;BME280;27399;51.516;13.670;2023-02-22T14:29:28;100412.88;;;12.14;85.67
41712;BME280;27399;51.516;13.670;2023-02-22T14:37:22;100402.38;;;11.99;86.15
41712;BME280;27399;51.516;13.670;2023-02-22T14:40:03;100406.88;;;11.95;86.26
41712;BME280;27399;51.516;13.670;2023-02-22T14:42:42;100401.16;;;11.54;86.70
41712;BME280;27399;51.516;13.670;2023-02-22T14:45:23;100399.47;;;11.50;87.37
41712;BME280;27399;51.516;13.670;2023-02-22T14:53:53;100402.50;;;11.89;86.50
41712;BME280;27399;51.516;13.670;2023-02-22T14:56:29;100396.59;;;11.64;85.68
41712;BME280;27399;51.516;13.670;2023-02-22T15:01:31;100388.47;;;11.73;87.12
41712;BME280;27399;51.516;13.670;2023-02-22T15:04:23;100401.09;;;11.63;87.28
41712;BME280;27399;51.516;13.670;2023-02-22T15:10:51;100399.22;;;11.69;86.64
41712;BME280;27399;51.516;13.670;2023-02-22T15:13:24;100401.94;;;11.64;87.36
41712;BME280;27399;51.516;13.670;2023-02-22T15:15:58;100388.09;;;11.34;87.22
41712;BME280;27399;51.516;13.670;2023-02-22T15:21:13;100402.84;;;11.63;87.34
41712;BME280;27399;51.516;13.670;2023-02-22T15:26:35;100396.88;;;11.42;87.73
41712;BME280;27399;51.516;13.670;2023-02-22T15:29:15;100398.06;;;11.16;89.67
41712;BME280;27399;51.516;13.670;2023-02-22T15:31:42;100395.13;;;11.41;88.69
41712;BME280;27399;51.516;13.670;2023-02-22T15:36:44;100390.59;;;11.48;88.54
41712;BME280;27399;51.516;13.670;2023-02-22T15:42:01;100385.47;;;11.28;89.11
41712;BME280;27399;51.516;13.670;2023-02-22T15:44:27;100385.31;;;11.43;87.98
41712;BME280;27399;51.516;13.670;2023-02-22T15:46:53;100390.69;;;11.39;88.80